Terminal Aerodrome Forecast
Issued by NWS

Home | Current Version | Previous Version | Graphics & Text | Print | Product List | Glossary On
Versions: 1 2 3 4 5 6 7 8 9 10 11 12 13 14 15 16 17
000
FTUS43 KIWX 211100
TAFSBN
TAF
KSBN 211122Z 2112/2212 VRB03KT 6SM BR SCT250
     FM211300 19007KT P6SM SCT050
     FM220000 16003KT P6SM SKC=

USA.gov is the U.S. government's official web portal to all federal, state and local government web resources and services.